Time;durP1;ratioP1;P1;durP2;ratioP2;P2;SDS_P1;SDS_P2;PMS_P1;PMS_P2;Temp;Humidity;BMP_temperature;BMP_pressure;BME280_temperature;BME280_humidity;BME280_pressure;Samples;Min_cycle;Max_cycle;Signal;HPM_P1;HPM_P2
2022/08/30 00:02:42;;;;;;;;;;;;;;;20.06;66.33;95662.75;5055203;28;20021;-71
2022/08/30 00:05:08;;;;;;;;;;;;;;;20.04;66.39;95657.72;5061888;28;20385;-71
2022/08/30 00:07:33;;;;;;;;;;;;;;;20.04;66.21;95660.41;5064345;28;20053;-71
2022/08/30 00:09:59;;;;;;;;;;;;;;;19.96;66.47;95658.69;5055627;28;20021;-71
2022/08/30 00:12:24;;;;;;;;;;;;;;;19.94;66.33;95660.97;5068580;28;20005;-71
2022/08/30 00:14:49;;;;;;;;;;;;;;;19.92;66.38;95655.13;5054862;28;20014;-71
2022/08/30 00:17:15;;;;;;;;;;;;;;;19.88;66.44;95651.56;5059060;28;20009;-70
2022/08/30 00:19:40;;;;;;;;;;;;;;;19.88;66.39;95649.66;5054190;28;20623;-71
2022/08/30 00:22:06;;;;;;;;;;;;;;;19.88;66.29;95651.56;5062476;28;20044;-71
2022/08/30 00:24:31;;;;;;;;;;;;;;;19.86;66.24;95660.03;5058531;28;20018;-71
2022/08/30 00:26:56;;;;;;;;;;;;;;;19.81;66.50;95649.50;5059879;28;20045;-71
2022/08/30 00:29:22;;;;;;;;;;;;;;;19.80;66.46;95657.94;5064012;28;20010;-71
2022/08/30 00:31:47;;;;;;;;;;;;;;;19.77;66.57;95647.84;5060549;28;20421;-70
2022/08/30 00:34:12;;;;;;;;;;;;;;;19.73;66.61;95645.84;5050863;28;20070;-72
2022/08/30 00:36:38;;;;;;;;;;;;;;;19.70;66.60;95654.63;5061534;28;20359;-71
2022/08/30 00:39:03;;;;;;;;;;;;;;;19.71;66.53;95656.22;5060164;28;20013;-71
2022/08/30 00:41:28;;;;;;;;;;;;;;;19.72;66.42;95654.28;5055182;28;20150;-71
2022/08/30 00:43:53;;;;;;;;;;;;;;;19.73;66.57;95653.16;5061407;28;20016;-71
2022/08/30 00:46:19;;;;;;;;;;;;;;;19.74;66.34;95652.00;5054229;28;20016;-72
2022/08/30 00:48:46;;;;;;;;;;;;;;;19.69;66.36;95646.88;5058211;28;20384;-71
2022/08/30 00:51:12;;;;;;;;;;;;;;;19.68;66.46;95645.31;5062465;28;20013;-71
2022/08/30 00:53:41;;;;;;;;;;;;;;;19.62;66.42;95644.03;5050883;28;20100;-71
2022/08/30 00:56:06;;;;;;;;;;;;;;;19.59;66.65;95642.78;5057111;28;20633;-72
2022/08/30 00:58:36;;;;;;;;;;;;;;;19.59;66.56;95642.78;5059275;28;20057;-71
2022/08/30 01:01:02;;;;;;;;;;;;;;;19.61;66.63;95640.53;5056864;28;20032;-71
2022/08/30 01:03:28;;;;;;;;;;;;;;;19.60;66.70;95647.06;5049419;28;20389;-71
2022/08/30 01:05:55;;;;;;;;;;;;;;;19.58;66.43;95646.59;5051738;28;20014;-72
2022/08/30 01:08:21;;;;;;;;;;;;;;;19.61;66.40;95634.38;5052364;28;20108;-71
2022/08/30 01:10:48;;;;;;;;;;;;;;;19.59;66.33;95642.78;5053826;28;20104;-71
2022/08/30 01:13:14;;;;;;;;;;;;;;;19.56;66.28;95634.59;5055556;28;20016;-72
2022/08/30 01:15:40;;;;;;;;;;;;;;;19.51;66.63;95637.56;5055805;28;20010;-71
2022/08/30 01:18:05;;;;;;;;;;;;;;;19.52;66.73;95641.81;5048569;28;20095;-71
2022/08/30 01:20:34;;;;;;;;;;;;;;;19.49;66.75;95637.88;5046418;28;20136;-71
2022/08/30 01:23:05;;;;;;;;;;;;;;;19.50;66.56;95636.78;5053813;28;20111;-71
2022/08/30 01:25:33;;;;;;;;;;;;;;;19.47;66.63;95640.94;5062959;28;20461;-71
2022/08/30 01:28:06;;;;;;;;;;;;;;;19.48;66.48;95633.63;5059546;28;20096;-71
2022/08/30 01:30:32;;;;;;;;;;;;;;;19.47;66.54;95638.25;5057773;28;20801;-71
2022/08/30 01:32:59;;;;;;;;;;;;;;;19.47;66.61;95638.25;5057544;28;20009;-71
2022/08/30 01:35:25;;;;;;;;;;;;;;;19.45;66.60;95637.81;5058173;28;20570;-71
2022/08/30 01:37:51;;;;;;;;;;;;;;;19.44;66.51;95638.16;5064806;28;20013;-71
2022/08/30 01:40:17;;;;;;;;;;;;;;;19.45;66.55;95642.44;5053109;28;20012;-71
2022/08/30 01:42:42;;;;;;;;;;;;;;;19.43;66.65;95636.59;5062714;28;20017;-71
2022/08/30 01:45:08;;;;;;;;;;;;;;;19.45;66.45;95642.44;5051587;28;20014;-72
2022/08/30 01:47:33;;;;;;;;;;;;;;;19.42;66.32;95641.22;5066199;28;20036;-71
2022/08/30 01:49:59;;;;;;;;;;;;;;;19.35;66.54;95641.03;5059478;28;20049;-71
2022/08/30 01:52:24;;;;;;;;;;;;;;;19.31;66.86;95640.16;5068076;28;20063;-71
2022/08/30 01:54:50;;;;;;;;;;;;;;;19.34;66.79;95644.06;5062336;28;20473;-71
2022/08/30 01:57:16;;;;;;;;;;;;;;;19.26;67.01;95632.31;5065876;28;20024;-71
2022/08/30 01:59:46;;;;;;;;;;;;;;;19.26;67.18;95631.56;5059828;28;20067;-71
2022/08/30 02:02:11;;;;;;;;;;;;;;;19.26;67.38;95636.94;5061833;28;20009;-72
2022/08/30 02:04:37;;;;;;;;;;;;;;;19.29;67.29;95641.63;5057784;28;20147;-71
2022/08/30 02:07:03;;;;;;;;;;;;;;;19.29;66.83;95639.72;5058698;28;20009;-72
2022/08/30 02:09:28;;;;;;;;;;;;;;;19.29;67.01;95631.63;5062525;28;20013;-71
2022/08/30 02:11:54;;;;;;;;;;;;;;;19.24;67.20;95634.56;5060658;28;20017;-70
2022/08/30 02:14:19;;;;;;;;;;;;;;;19.23;67.11;95641.09;5057976;28;20079;-71
2022/08/30 02:16:45;;;;;;;;;;;;;;;19.17;67.29;95634.41;5060863;28;20010;-71
2022/08/30 02:19:10;;;;;;;;;;;;;;;19.19;67.34;95626.75;5059575;28;20404;-71
2022/08/30 02:21:35;;;;;;;;;;;;;;;19.13;67.55;95631.59;5056024;28;20036;-71
2022/08/30 02:24:01;;;;;;;;;;;;;;;19.13;67.41;95633.53;5061045;28;20013;-71
2022/08/30 02:26:26;;;;;;;;;;;;;;;19.12;67.22;95626.56;5068581;28;20624;-71
2022/08/30 02:28:52;;;;;;;;;;;;;;;19.16;67.47;95628.22;5069372;28;20015;-73
2022/08/30 02:31:19;;;;;;;;;;;;;;;19.16;67.36;95630.94;5064151;28;20010;-70
2022/08/30 02:33:44;;;;;;;;;;;;;;;19.17;66.96;95627.09;5067186;28;20426;-71
2022/08/30 02:36:09;;;;;;;;;;;;;;;19.14;66.78;95625.09;5065054;28;20064;-70
2022/08/30 02:38:35;;;;;;;;;;;;;;;19.10;67.04;95620.75;5059340;28;20421;-71
2022/08/30 02:41:00;;;;;;;;;;;;;;;19.12;66.88;95623.88;5058790;28;20009;-71
2022/08/30 02:43:25;;;;;;;;;;;;;;;19.09;66.87;95633.44;5070079;28;20078;-72
2022/08/30 02:45:51;;;;;;;;;;;;;;;19.12;66.97;95635.44;5059840;28;20017;-71
2022/08/30 02:48:16;;;;;;;;;;;;;;;19.09;67.09;95643.44;5060388;28;20005;-71
2022/08/30 02:53:09;;;;;;;;;;;;;;;19.09;66.88;95643.44;5067770;28;20021;-64
2022/08/30 02:55:35;;;;;;;;;;;;;;;19.09;66.96;95644.25;5068916;28;20454;-65
2022/08/30 02:58:00;;;;;;;;;;;;;;;19.10;66.73;95645.78;5052527;28;20051;-65
2022/08/30 03:00:25;;;;;;;;;;;;;;;19.13;66.85;95641.63;5067994;28;20039;-64
2022/08/30 03:02:50;;;;;;;;;;;;;;;19.06;67.25;95641.44;5067023;28;20052;-65
2022/08/30 03:05:16;;;;;;;;;;;;;;;19.07;67.14;95649.19;5067122;28;20010;-65
2022/08/30 03:07:41;;;;;;;;;;;;;;;19.10;66.73;95645.03;5049265;28;20063;-65
2022/08/30 03:10:07;;;;;;;;;;;;;;;19.07;66.55;95649.19;5069635;28;20012;-65
2022/08/30 03:12:32;;;;;;;;;;;;;;;19.04;66.81;95647.19;5067204;28;20068;-65
2022/08/30 03:14:58;;;;;;;;;;;;;;;19.06;66.87;95652.22;5067049;28;20087;-65
2022/08/30 03:17:23;;;;;;;;;;;;;;;19.06;66.82;95644.91;5049026;28;20022;-66
2022/08/30 03:19:48;;;;;;;;;;;;;;;19.04;66.81;95643.69;5049279;28;20088;-65
2022/08/30 03:22:13;;;;;;;;;;;;;;;18.99;66.84;95643.94;5067504;28;20009;-65
2022/08/30 03:24:39;;;;;;;;;;;;;;;18.98;66.76;95650.47;5067533;28;21255;-65
2022/08/30 03:27:04;;;;;;;;;;;;;;;18.97;67.03;95649.69;5069798;28;20155;-65
2022/08/30 03:29:29;;;;;;;;;;;;;;;18.96;67.16;95635.41;5048588;28;20476;-65
2022/08/30 03:31:56;;;;;;;;;;;;;;;18.93;67.30;95646.09;5060616;28;20020;-65
2022/08/30 03:34:22;;;;;;;;;;;;;;;18.97;67.06;95641.59;5066255;28;20120;-65
2022/08/30 03:36:48;;;;;;;;;;;;;;;18.96;66.95;95634.63;5048628;28;20016;-65
2022/08/30 03:39:13;;;;;;;;;;;;;;;18.94;66.89;95642.31;5066957;28;20405;-65
2022/08/30 03:41:39;;;;;;;;;;;;;;;18.91;66.92;95637.59;5048394;28;20014;-65
2022/08/30 03:44:04;;;;;;;;;;;;;;;18.89;67.00;95634.47;5065506;28;20017;-64
2022/08/30 03:46:29;;;;;;;;;;;;;;;18.83;67.23;95641.22;5065646;28;20009;-64
2022/08/30 03:48:54;;;;;;;;;;;;;;;18.82;66.99;95632.34;5046953;28;20024;-65
2022/08/30 03:51:20;;;;;;;;;;;;;;;18.79;67.24;95635.75;5067225;28;20021;-65
2022/08/30 03:53:46;;;;;;;;;;;;;;;18.83;67.37;95643.91;5065576;28;20035;-64
2022/08/30 03:56:11;;;;;;;;;;;;;;;18.81;67.16;95638.88;5052123;28;20018;-64
2022/08/30 03:58:37;;;;;;;;;;;;;;;18.83;67.29;95641.97;5065748;28;20017;-65
2022/08/30 04:01:02;;;;;;;;;;;;;;;18.82;66.94;95645.81;5066196;28;20021;-64
2022/08/30 04:03:34;;;;;;;;;;;;;;;18.79;66.76;95640.34;5067743;28;20017;-65
2022/08/30 04:05:59;;;;;;;;;;;;;;;18.76;66.80;95641.03;5067844;28;20013;-65
2022/08/30 04:08:25;;;;;;;;;;;;;;;18.74;66.59;95645.97;5067840;28;20013;-66
2022/08/30 04:10:52;;;;;;;;;;;;;;;18.70;66.89;95651.28;5066021;28;20013;-66
2022/08/30 04:13:17;;;;;;;;;;;;;;;18.68;66.97;95654.31;5062170;28;20054;-66
2022/08/30 04:15:43;;;;;;;;;;;;;;;18.68;67.14;95657.00;5063085;28;20009;-66
2022/08/30 04:18:08;;;;;;;;;;;;;;;18.68;67.20;95656.19;5066183;28;20017;-66
2022/08/30 04:20:34;;;;;;;;;;;;;;;18.68;67.04;95662.41;5051458;28;20018;-67
2022/08/30 04:23:01;;;;;;;;;;;;;;;18.68;67.13;95657.00;5068585;28;20009;-66
2022/08/30 04:25:26;;;;;;;;;;;;;;;18.69;67.21;95665.88;5053773;28;20130;-65
2022/08/30 04:27:52;;;;;;;;;;;;;;;18.67;67.06;95671.56;5080230;28;20112;-67
2022/08/30 04:30:17;;;;;;;;;;;;;;;18.68;67.03;95672.38;5066307;28;20012;-67
2022/08/30 04:32:43;;;;;;;;;;;;;;;18.68;67.06;95675.06;5063114;28;20768;-67
2022/08/30 04:35:09;;;;;;;;;;;;;;;18.68;66.93;95672.38;5066284;28;20013;-67
2022/08/30 04:37:35;;;;;;;;;;;;;;;18.68;67.02;95665.09;5049344;28;20603;-66
2022/08/30 04:40:00;;;;;;;;;;;;;;;18.68;67.08;95667.78;5054032;28;20116;-66
2022/08/30 04:42:28;;;;;;;;;;;;;;;18.70;66.83;95670.13;5066195;28;20100;-65
2022/08/30 04:44:54;;;;;;;;;;;;;;;18.74;66.85;95670.25;5064812;28;20545;-67
2022/08/30 04:47:19;;;;;;;;;;;;;;;18.73;66.85;95674.03;5062756;28;20102;-66
2022/08/30 04:49:44;;;;;;;;;;;;;;;18.76;67.13;95674.16;5046454;28;20074;-67
2022/08/30 04:52:10;;;;;;;;;;;;;;;18.79;67.29;95678.09;5064324;28;20138;-66
2022/08/30 04:54:35;;;;;;;;;;;;;;;18.83;67.09;95687.03;5048238;28;20017;-68
2022/08/30 04:57:00;;;;;;;;;;;;;;;18.86;67.32;95683.66;5064515;28;20009;-65
2022/08/30 04:59:25;;;;;;;;;;;;;;;18.93;67.12;95683.84;5065957;28;20020;-66
2022/08/30 05:01:51;;;;;;;;;;;;;;;19.02;67.09;95687.16;5059264;28;20434;-67
2022/08/30 05:04:16;;;;;;;;;;;;;;;19.07;66.55;95695.00;5074922;28;20013;-66
2022/08/30 05:06:41;;;;;;;;;;;;;;;19.11;66.53;95695.91;5048051;28;20031;-66
2022/08/30 05:09:06;;;;;;;;;;;;;;;19.18;66.64;95693.38;5049177;28;20095;-65
2022/08/30 05:11:32;;;;;;;;;;;;;;;19.22;66.17;95699.66;5036575;28;20017;-64
2022/08/30 05:13:57;;;;;;;;;;;;;;;19.30;66.07;95702.56;5065622;28;20052;-66
2022/08/30 05:16:22;;;;;;;;;;;;;;;19.36;66.05;95704.66;5049762;28;20104;-65
2022/08/30 05:18:48;;;;;;;;;;;;;;;19.43;66.03;95710.22;5045878;28;20049;-66
2022/08/30 05:21:17;;;;;;;;;;;;;;;19.48;65.93;95709.97;5065883;28;20104;-65
2022/08/30 05:23:43;;;;;;;;;;;;;;;19.55;65.79;95706.69;5064967;28;20096;-66
2022/08/30 05:26:10;;;;;;;;;;;;;;;19.63;65.57;95711.13;5065913;28;20116;-66
2022/08/30 05:28:35;;;;;;;;;;;;;;;19.72;65.40;95702.88;5050118;28;20020;-66
2022/08/30 05:31:00;;;;;;;;;;;;;;;19.80;65.46;95699.19;5047133;28;20025;-67
2022/08/30 05:33:26;;;;;;;;;;;;;;;19.89;65.20;95704.44;5046117;28;20060;-65
2022/08/30 05:35:52;;;;;;;;;;;;;;;19.97;65.15;95706.94;5064545;28;20017;-66
2022/08/30 05:38:17;;;;;;;;;;;;;;;19.99;65.22;95701.97;5048936;28;20078;-70
2022/08/30 05:40:42;;;;;;;;;;;;;;;20.07;65.21;95702.94;5084030;28;20725;-73
2022/08/30 05:43:09;;;;;;;;;;;;;;;20.22;64.97;95701.34;5051060;28;20044;-67
2022/08/30 05:45:35;;;;;;;;;;;;;;;20.33;64.65;95705.06;5063454;28;20477;-66
2022/08/30 05:48:00;;;;;;;;;;;;;;;20.41;64.31;95711.41;5066943;28;20017;-66
2022/08/30 05:50:26;;;;;;;;;;;;;;;20.50;64.06;95698.50;5063525;28;20056;-66
2022/08/30 05:52:52;;;;;;;;;;;;;;;20.58;63.84;95702.16;5064929;28;20205;-66
2022/08/30 05:55:17;;;;;;;;;;;;;;;20.66;63.63;95693.81;5065380;28;20410;-65
2022/08/30 05:57:43;;;;;;;;;;;;;;;20.76;63.58;95706.78;5067889;28;20595;-66
2022/08/30 06:00:12;;;;;;;;;;;;;;;20.85;63.20;95700.38;5046698;28;20010;-66
2022/08/30 06:02:37;;;;;;;;;;;;;;;20.94;63.14;95699.03;5048550;28;20013;-65
2022/08/30 06:05:03;;;;;;;;;;;;;;;21.06;63.07;95708.91;5067033;28;20009;-65
2022/08/30 06:07:29;;;;;;;;;;;;;;;21.15;62.55;95700.59;5047078;28;20013;-65
2022/08/30 06:09:54;;;;;;;;;;;;;;;21.23;62.29;95699.56;5066273;28;20104;-66
2022/08/30 06:12:19;;;;;;;;;;;;;;;21.33;62.67;95717.94;5064781;28;20020;-66
2022/08/30 06:14:45;;;;;;;;;;;;;;;21.41;61.98;95708.81;5067058;28;20025;-69
2022/08/30 06:17:10;;;;;;;;;;;;;;;21.51;61.98;95713.66;5066047;28;20473;-69
2022/08/30 06:19:35;;;;;;;;;;;;;;;21.61;61.97;95704.16;5065104;28;20013;-68
2022/08/30 06:22:00;;;;;;;;;;;;;;;21.73;61.87;95698.53;5047798;28;20009;-68
2022/08/30 06:24:26;;;;;;;;;;;;;;;21.84;61.51;95703.34;5063963;28;20100;-67
2022/08/30 06:26:51;;;;;;;;;;;;;;;21.95;61.73;95707.00;5046335;28;20013;-68
2022/08/30 06:29:17;;;;;;;;;;;;;;;22.08;61.61;95704.91;5046573;28;20433;-68
2022/08/30 06:31:43;;;;;;;;;;;;;;;22.18;61.34;95696.94;5069138;28;20771;-65
2022/08/30 06:34:08;;;;;;;;;;;;;;;22.26;60.93;95695.88;5050118;28;20021;-65
2022/08/30 06:36:33;;;;;;;;;;;;;;;22.36;60.99;95696.41;5070171;28;20041;-65
2022/08/30 06:38:59;;;;;;;;;;;;;;;22.47;60.95;95706.28;5068672;28;20025;-65
2022/08/30 06:41:28;;;;;;;;;;;;;;;22.57;60.47;95702.13;5052653;28;20513;-66
2022/08/30 06:43:54;;;;;;;;;;;;;;;22.67;60.44;95706.91;5048190;28;20009;-66
2022/08/30 06:46:20;;;;;;;;;;;;;;;22.71;59.92;95707.75;5071331;28;20037;-65
2022/08/30 06:48:46;;;;;;;;;;;;;;;22.67;59.34;95712.31;5051941;28;21630;-65
2022/08/30 06:51:11;;;;;;;;;;;;;;;22.84;59.50;95703.66;5067447;28;20014;-65
2022/08/30 06:53:36;;;;;;;;;;;;;;;22.94;59.37;95707.69;5053092;28;20100;-67
2022/08/30 06:56:03;;;;;;;;;;;;;;;23.05;59.24;95705.88;5050542;28;20490;-65
2022/08/30 06:58:29;;;;;;;;;;;;;;;23.16;58.88;95706.00;5069062;28;20013;-66
2022/08/30 07:00:54;;;;;;;;;;;;;;;23.18;58.45;95709.09;5052561;28;20389;-66
2022/08/30 07:03:20;;;;;;;;;;;;;;;23.24;58.24;95702.22;5068921;28;20009;-66
2022/08/30 07:05:46;;;;;;;;;;;;;;;23.24;57.64;95706.84;5067915;28;20016;-67
2022/08/30 07:08:12;;;;;;;;;;;;;;;23.42;57.55;95696.16;5052259;28;20055;-67
2022/08/30 07:10:37;;;;;;;;;;;;;;;23.54;57.42;95702.09;5069765;28;20441;-66
2022/08/30 07:13:03;;;;;;;;;;;;;;;23.66;57.62;95692.94;5048504;28;20014;-66
2022/08/30 07:15:28;;;;;;;;;;;;;;;23.71;56.98;95703.47;5043775;28;20100;-66
2022/08/30 07:20:37;;;;;;;;;;;;;;;23.34;57.28;95706.19;5069599;28;20112;-66
2022/08/30 07:23:02;;;;;;;;;;;;;;;23.18;58.05;95700.19;5048337;28;20116;-65
2022/08/30 07:25:27;;;;;;;;;;;;;;;23.69;56.87;95694.91;5065978;28;20013;-65
2022/08/30 07:27:53;;;;;;;;;;;;;;;23.91;55.83;95698.59;5066715;28;20013;-66
2022/08/30 07:30:18;;;;;;;;;;;;;;;24.07;55.22;95698.31;5049116;28;20515;-65
2022/08/30 07:32:43;;;;;;;;;;;;;;;24.02;55.61;95696.72;5047654;28;20025;-66
2022/08/30 07:35:09;;;;;;;;;;;;;;;24.10;55.22;95697.56;5049157;28;20025;-69
2022/08/30 07:37:34;;;;;;;;;;;;;;;24.24;54.46;95692.22;5049929;28;20055;-66
2022/08/30 07:39:59;;;;;;;;;;;;;;;24.10;54.98;95686.69;5066170;28;20108;-66
2022/08/30 07:42:24;;;;;;;;;;;;;;;24.45;54.94;95691.59;5064723;28;20013;-66
2022/08/30 07:44:49;;;;;;;;;;;;;;;24.35;53.81;95695.81;5067742;28;20010;-66
2022/08/30 07:47:15;;;;;;;;;;;;;;;24.50;54.44;95693.97;5065968;28;20013;-66
2022/08/30 07:49:41;;;;;;;;;;;;;;;25.02;52.55;95688.34;5045896;28;20009;-68
2022/08/30 07:52:06;;;;;;;;;;;;;;;24.82;52.97;95687.88;5047338;28;20018;-66
2022/08/30 07:54:31;;;;;;;;;;;;;;;24.50;53.30;95698.63;5064480;28;20053;-67
2022/08/30 07:56:56;;;;;;;;;;;;;;;24.37;54.42;95698.94;5067360;28;20122;-66
2022/08/30 07:59:22;;;;;;;;;;;;;;;24.48;53.68;95695.50;5067432;28;20552;-68
2022/08/30 08:01:47;;;;;;;;;;;;;;;23.99;54.22;95696.69;5066817;28;20013;-66
2022/08/30 08:04:12;;;;;;;;;;;;;;;24.44;53.40;95695.47;5065947;28;20009;-67
2022/08/30 08:06:38;;;;;;;;;;;;;;;24.60;53.09;95695.19;5064305;28;20017;-66
2022/08/30 08:09:04;;;;;;;;;;;;;;;24.76;51.89;95700.31;5045280;28;20351;-66
2022/08/30 08:11:30;;;;;;;;;;;;;;;24.55;52.78;95707.19;5047211;28;20051;-66
2022/08/30 08:13:55;;;;;;;;;;;;;;;25.00;51.21;95696.13;5065565;28;20032;-66
2022/08/30 08:16:22;;;;;;;;;;;;;;;25.10;51.23;95703.59;5046433;28;20020;-67
2022/08/30 08:18:47;;;;;;;;;;;;;;;24.81;50.77;95694.50;5046053;28;20013;-67
2022/08/30 08:21:12;;;;;;;;;;;;;;;25.25;50.96;95698.97;5064394;28;20009;-66
2022/08/30 08:23:38;;;;;;;;;;;;;;;25.27;50.98;95699.34;5045131;28;20017;-67
2022/08/30 08:26:03;;;;;;;;;;;;;;;25.23;49.54;95702.06;5049054;28;20225;-68
2022/08/30 08:28:29;;;;;;;;;;;;;;;25.49;49.28;95700.19;5067004;28;20013;-65
2022/08/30 08:30:54;;;;;;;;;;;;;;;25.57;49.31;95710.69;5067661;28;20208;-67
2022/08/30 08:33:20;;;;;;;;;;;;;;;25.63;49.01;95706.44;5062800;28;20015;-67
2022/08/30 08:35:45;;;;;;;;;;;;;;;25.44;48.17;95712.25;5047515;28;20036;-68
2022/08/30 08:38:10;;;;;;;;;;;;;;;25.41;48.58;95702.91;5067173;28;21362;-67
2022/08/30 08:40:47;;;;;;;;;;;;;;;25.63;47.47;95700.19;5067365;28;20367;-67
2022/08/30 08:43:14;;;;;;;;;;;;;;;25.21;48.61;95717.22;5062740;28;20033;-67
2022/08/30 08:45:58;;;;;;;;;;;;;;;25.52;47.94;95713.81;5062129;28;20009;-67
2022/08/30 08:48:52;;;;;;;;;;;;;;;25.75;47.81;95715.44;5070755;28;20520;-67
2022/08/30 08:54:05;;;;;;;;;;;;;;;25.78;46.13;95707.25;5064977;28;20035;-67
2022/08/30 08:56:31;;;;;;;;;;;;;;;26.11;45.04;95706.09;5064523;28;20009;-66
2022/08/30 08:58:56;;;;;;;;;;;;;;;26.31;44.66;95697.50;5080531;22;20480;-73
2022/08/30 09:01:26;;;;;;;;;;;;;;;26.23;44.79;95696.72;5045357;28;20031;-70
2022/08/30 09:03:52;;;;;;;;;;;;;;;26.06;43.58;95692.88;5065592;28;20505;-70
2022/08/30 09:06:31;;;;;;;;;;;;;;;26.02;44.61;95702.22;5065254;28;20556;-71
2022/08/30 09:08:56;;;;;;;;;;;;;;;26.14;44.31;95699.06;5065404;28;20005;-70
2022/08/30 09:11:26;;;;;;;;;;;;;;;25.91;44.46;95700.25;5064575;28;20519;-70
2022/08/30 09:13:53;;;;;;;;;;;;;;;26.14;43.43;95694.41;5061909;28;20013;-70
2022/08/30 09:16:37;;;;;;;;;;;;;;;25.99;42.67;95697.53;5064421;28;20045;-71
2022/08/30 09:19:02;;;;;;;;;;;;;;;26.35;42.23;95688.13;5064156;28;20005;-71
2022/08/30 09:21:27;;;;;;;;;;;;;;;26.59;42.82;95683.81;5066175;28;20435;-70
2022/08/30 09:23:57;;;;;;;;;;;;;;;26.72;42.10;95688.84;5063061;28;20044;-71
2022/08/30 09:26:28;;;;;;;;;;;;;;;26.92;41.65;95688.03;5047135;28;20009;-70
2022/08/30 09:28:53;;;;;;;;;;;;;;;26.65;41.25;95695.13;5064863;28;20001;-70
2022/08/30 09:31:20;;;;;;;;;;;;;;;26.48;41.87;95679.59;5066171;28;20124;-72
2022/08/30 09:34:06;;;;;;;;;;;;;;;26.63;41.69;95659.28;5061034;28;20100;-70
2022/08/30 09:36:33;;;;;;;;;;;;;;;27.12;42.13;95674.66;5064553;28;20062;-71
2022/08/30 09:39:00;;;;;;;;;;;;;;;26.94;41.22;95677.47;5060412;28;20017;-71
2022/08/30 09:41:27;;;;;;;;;;;;;;;26.42;41.09;95676.47;5059545;28;20013;-71
2022/08/30 09:44:04;;;;;;;;;;;;;;;26.63;41.33;95675.66;5066090;28;20009;-70
2022/08/30 09:46:29;;;;;;;;;;;;;;;26.94;41.88;95669.28;5064561;28;20013;-71
2022/08/30 09:48:54;;;;;;;;;;;;;;;27.14;41.10;95666.09;5064867;28;20009;-71
2022/08/30 09:51:40;;;;;;;;;;;;;;;26.62;42.05;95674.09;5065323;28;20009;-73
2022/08/30 09:54:12;;;;;;;;;;;;;;;27.06;40.61;95653.63;5064099;28;20024;-71
2022/08/30 09:56:41;;;;;;;;;;;;;;;27.18;40.86;95655.94;5068171;28;20385;-71
2022/08/30 09:59:06;;;;;;;;;;;;;;;27.28;41.26;95649.63;5051852;28;20024;-71
2022/08/30 10:01:57;;;;;;;;;;;;;;;27.18;41.53;95653.22;5067113;28;20376;-71
2022/08/30 10:04:27;;;;;;;;;;;;;;;27.23;41.86;95647.34;5044575;28;20147;-71
2022/08/30 10:07:05;;;;;;;;;;;;;;;27.23;42.51;95644.59;5069467;28;20014;-71
2022/08/30 10:09:30;;;;;;;;;;;;;;;27.10;39.85;95654.41;5057646;28;20012;-72
2022/08/30 10:12:03;;;;;;;;;;;;;;;27.09;39.97;95623.59;5071945;28;20439;-71
2022/08/30 10:14:28;;;;;;;;;;;;;;;27.50;40.45;95636.59;5070223;28;20389;-72
2022/08/30 10:17:12;;;;;;;;;;;;;;;27.26;40.53;95634.81;5057729;28;20551;-71
2022/08/30 10:19:44;;;;;;;;;;;;;;;27.16;41.48;95639.94;5069428;28;20473;-71
2022/08/30 10:22:18;;;;;;;;;;;;;;;27.37;40.55;95639.03;5066421;28;20099;-70
2022/08/30 10:24:49;;;;;;;;;;;;;;;27.66;40.53;95625.16;5064096;28;20010;-71
2022/08/30 10:27:40;;;;;;;;;;;;;;;27.84;39.08;95633.22;5062968;28;20462;-71
2022/08/30 10:30:09;;;;;;;;;;;;;;;27.79;38.83;95630.94;5053531;28;20477;-71
2022/08/30 10:32:34;;;;;;;;;;;;;;;27.86;38.75;95628.16;5057829;28;20404;-72
2022/08/30 10:35:12;;;;;;;;;;;;;;;27.70;39.13;95625.91;5069679;28;20108;-71
2022/08/30 10:37:40;;;;;;;;;;;;;;;27.71;38.23;95630.22;5067850;28;20373;-71
2022/08/30 10:43:18;;;;;;;;;;;;;;;27.19;38.85;95620.03;5068060;28;20567;-71
2022/08/30 10:45:45;;;;;;;;;;;;;;;27.21;37.90;95622.34;5077607;28;20469;-72
2022/08/30 10:48:28;;;;;;;;;;;;;;;27.47;38.14;95619.03;5060578;28;20536;-72
2022/08/30 10:50:55;;;;;;;;;;;;;;;27.43;38.59;95617.50;5080527;28;20020;-72
2022/08/30 10:53:21;;;;;;;;;;;;;;;27.90;38.67;95612.50;5051905;28;20014;-72
2022/08/30 10:55:52;;;;;;;;;;;;;;;27.56;38.11;95615.88;5068545;28;20538;-71
2022/08/30 10:58:18;;;;;;;;;;;;;;;27.44;37.55;95614.41;5068935;28;20016;-72
2022/08/30 11:00:46;;;;;;;;;;;;;;;27.33;38.04;95619.16;5057034;28;20013;-71
2022/08/30 11:03:41;;;;;;;;;;;;;;;27.57;36.87;95617.41;5067556;28;20398;-71
2022/08/30 11:06:06;;;;;;;;;;;;;;;27.83;35.97;95618.78;5069327;28;20009;-72
2022/08/30 11:08:37;;;;;;;;;;;;;;;28.24;35.51;95610.56;5069103;28;20025;-71
2022/08/30 11:11:16;;;;;;;;;;;;;;;27.83;38.36;95613.31;5065974;28;20100;-72
2022/08/30 11:13:42;;;;;;;;;;;;;;;27.88;37.30;95612.13;5066349;28;20027;-72
2022/08/30 11:16:14;;;;;;;;;;;;;;;28.02;36.44;95609.25;5068374;28;20009;-71
2022/08/30 11:18:50;;;;;;;;;;;;;;;28.06;36.25;95607.25;5067267;28;20009;-71
2022/08/30 11:21:18;;;;;;;;;;;;;;;28.17;35.87;95605.19;5064054;28;20500;-72
2022/08/30 11:23:56;;;;;;;;;;;;;;;27.78;36.42;95600.09;5068544;28;20068;-71
2022/08/30 11:26:42;;;;;;;;;;;;;;;28.16;36.87;95597.41;5050969;28;20012;-71
2022/08/30 11:29:07;;;;;;;;;;;;;;;28.16;37.39;95595.44;5052042;28;20082;-71
2022/08/30 11:31:35;;;;;;;;;;;;;;;28.41;36.32;95595.19;5071102;28;20473;-72
2022/08/30 11:34:00;;;;;;;;;;;;;;;28.47;37.07;95595.53;5067305;28;20009;-71
2022/08/30 11:36:34;;;;;;;;;;;;;;;28.89;35.91;95591.47;5059652;28;20098;-72
2022/08/30 11:39:02;;;;;;;;;;;;;;;28.83;35.48;95592.34;5068934;28;20017;-71
2022/08/30 11:41:37;;;;;;;;;;;;;;;28.83;35.44;95595.84;5057089;28;20636;-73
2022/08/30 11:44:12;;;;;;;;;;;;;;;28.90;35.22;95597.72;5067945;28;20088;-72
2022/08/30 11:46:39;;;;;;;;;;;;;;;29.09;35.42;95596.31;5067719;28;20085;-71
2022/08/30 11:49:13;;;;;;;;;;;;;;;28.80;36.27;95602.13;5068413;28;20067;-72
2022/08/30 11:51:57;;;;;;;;;;;;;;;28.97;35.64;95603.13;5055185;28;20014;-71
2022/08/30 11:54:22;;;;;;;;;;;;;;;28.78;35.76;95603.75;5068400;28;20013;-72
2022/08/30 11:56:50;;;;;;;;;;;;;;;28.87;35.43;95596.59;5061334;28;20028;-71
2022/08/30 11:59:24;;;;;;;;;;;;;;;28.19;35.64;95608.28;5055583;28;20040;-72
2022/08/30 12:01:49;;;;;;;;;;;;;;;28.40;35.95;95596.38;5066591;28;20054;-72
2022/08/30 12:04:15;;;;;;;;;;;;;;;28.27;36.46;95569.94;5064908;28;20017;-72
2022/08/30 12:06:40;;;;;;;;;;;;;;;27.98;37.46;95597.56;5067191;28;20021;-72
2022/08/30 12:09:06;;;;;;;;;;;;;;;28.61;35.96;95600.84;5065469;28;20028;-72
2022/08/30 12:11:32;;;;;;;;;;;;;;;27.97;36.56;95599.53;5067376;28;20020;-72
2022/08/30 12:13:57;;;;;;;;;;;;;;;28.10;36.35;95599.81;5058786;28;20014;-71
2022/08/30 12:18:26;;;;;;;;;;;;;;;28.48;35.58;95597.84;5066370;28;20474;-72
2022/08/30 12:19:29;;;;;;;;;;;;;;;29.43;35.17;95591.50;5058293;28;20012;-72
2022/08/30 12:21:55;;;;;;;;;;;;;;;30.00;34.30;95585.09;5054689;28;20048;-72
2022/08/30 12:24:24;;;;;;;;;;;;;;;30.18;32.52;95582.03;5068315;28;20009;-72
2022/08/30 12:26:50;;;;;;;;;;;;;;;30.44;32.49;95585.84;5067239;28;20040;-72
2022/08/30 12:29:22;;;;;;;;;;;;;;;30.19;32.82;95582.81;5067414;28;20052;-72
2022/08/30 12:31:51;;;;;;;;;;;;;;;30.03;33.16;95576.00;5061959;28;20017;-72
2022/08/30 12:34:19;;;;;;;;;;;;;;;29.56;34.28;95585.47;5062814;28;20163;-72
2022/08/30 12:36:49;;;;;;;;;;;;;;;29.58;33.91;95583.06;5054617;28;20009;-72
2022/08/30 12:39:17;;;;;;;;;;;;;;;29.55;33.49;95579.19;5056168;28;20107;-72
2022/08/30 12:41:43;;;;;;;;;;;;;;;29.80;33.47;95576.03;5066120;28;20009;-72
2022/08/30 12:44:13;;;;;;;;;;;;;;;29.94;33.26;95573.06;5064164;28;20009;-72
2022/08/30 12:46:40;;;;;;;;;;;;;;;29.96;32.63;95583.59;5063866;28;20009;-72
2022/08/30 12:49:06;;;;;;;;;;;;;;;29.74;34.09;95578.50;5065235;28;20540;-72
2022/08/30 12:51:36;;;;;;;;;;;;;;;29.71;33.94;95571.09;5059661;28;20045;-71
2022/08/30 12:54:22;;;;;;;;;;;;;;;29.25;34.60;95571.81;5060195;28;20098;-72
2022/08/30 12:57:02;;;;;;;;;;;;;;;29.45;34.03;95572.66;5053966;28;20126;-71
2022/08/30 12:59:41;;;;;;;;;;;;;;;29.50;33.45;95566.72;5063196;28;20377;-72
2022/08/30 13:02:07;;;;;;;;;;;;;;;29.15;34.54;95565.31;5063857;28;20009;-71